Time;durP1;ratioP1;P1;durP2;ratioP2;P2;SDS_P1;SDS_P2;PMS_P1;PMS_P2;Temp;Humidity;BMP_temperature;BMP_pressure;BME280_temperature;BME280_humidity;BME280_pressure;Samples;Min_cycle;Max_cycle;Signal;HPM_P1;HPM_P2
2022/04/20 00:01:42;;;;;;;51.87;25.97;;;0.80;99.90;;;;;;10374105;28;20058;-83
2022/04/20 00:06:42;;;;;;;56.83;24.97;;;0.80;99.90;;;;;;10373693;28;20021;-81
2022/04/20 00:11:43;;;;;;;57.27;27.07;;;0.80;99.90;;;;;;10389562;23;20061;-82
2022/04/20 00:16:44;;;;;;;78.83;32.73;;;0.70;99.90;;;;;;10372170;28;20647;-82
2022/04/20 00:21:44;;;;;;;84.53;34.70;;;0.70;99.90;;;;;;10372937;28;20041;-81
2022/04/20 00:26:45;;;;;;;79.30;31.00;;;0.70;99.90;;;;;;10373271;28;20061;-82
2022/04/20 00:31:45;;;;;;;53.67;21.77;;;0.70;99.90;;;;;;10359697;28;20088;-83
2022/04/20 00:36:50;;;;;;;44.37;20.67;;;0.70;99.90;;;;;;10373284;28;20037;-83
2022/04/20 00:41:52;;;;;;;34.27;16.10;;;0.80;99.90;;;;;;10372154;28;20040;-83
2022/04/20 00:46:53;;;;;;;29.27;14.43;;;0.80;99.90;;;;;;10371889;28;20083;-83
2022/04/20 00:51:57;;;;;;;31.33;15.73;;;0.80;99.90;;;;;;10372089;28;20437;-82
2022/04/20 00:56:58;;;;;;;31.60;13.80;;;0.90;99.90;;;;;;10371838;28;20030;-83
2022/04/20 01:01:59;;;;;;;25.80;12.80;;;0.90;99.90;;;;;;10360036;28;20034;-82
2022/04/20 01:07:11;;;;;;;30.40;15.13;;;0.90;99.90;;;;;;10371956;28;20109;-83
2022/04/20 01:12:14;;;;;;;29.57;15.20;;;0.90;99.90;;;;;;10370637;28;20057;-83
2022/04/20 01:17:15;;;;;;;29.13;14.70;;;0.90;99.90;;;;;;10370917;28;20030;-81
2022/04/20 01:22:16;;;;;;;27.63;15.00;;;0.80;99.90;;;;;;10370390;28;20072;-85
2022/04/20 01:27:17;;;;;;;28.77;14.40;;;0.80;99.90;;;;;;10353545;28;20030;-84
2022/04/20 01:32:17;;;;;;;31.43;15.83;;;0.70;99.90;;;;;;10370103;28;20046;-84
2022/04/20 01:37:18;;;;;;;32.60;15.97;;;0.50;99.90;;;;;;10366657;28;20030;-84
2022/04/20 01:42:19;;;;;;;35.10;17.10;;;0.50;99.90;;;;;;10369929;28;20053;-84
2022/04/20 01:47:19;;;;;;;44.50;18.97;;;0.40;99.90;;;;;;10352183;28;20036;-83
2022/04/20 01:52:20;;;;;;;41.87;18.37;;;0.20;99.90;;;;;;10368542;28;20045;-84
2022/04/20 01:57:21;;;;;;;47.33;22.07;;;0.10;99.90;;;;;;10370296;28;20065;-84
2022/04/20 02:02:38;;;;;;;54.90;23.03;;;-0.10;99.90;;;;;;10369155;28;20034;-83
2022/04/20 02:07:39;;;;;;;64.30;30.10;;;-0.20;99.90;;;;;;10351094;28;20459;-82
2022/04/20 02:12:40;;;;;;;73.20;34.57;;;-0.30;99.90;;;;;;10350261;28;20054;-82
2022/04/20 02:17:40;;;;;;;85.53;41.03;;;-0.30;99.90;;;;;;10369062;28;20029;-83
2022/04/20 02:22:41;;;;;;;98.67;45.80;;;-0.30;99.90;;;;;;10350939;28;20453;-81
2022/04/20 02:27:43;;;;;;;113.40;47.67;;;-0.30;99.90;;;;;;10369299;28;20038;-85
2022/04/20 02:32:43;;;;;;;91.90;42.77;;;-0.30;99.90;;;;;;10366832;28;20045;-86
2022/04/20 02:37:44;;;;;;;93.27;40.87;;;-0.30;99.90;;;;;;10350497;28;20034;-84
2022/04/20 02:42:46;;;;;;;87.83;39.47;;;-0.20;99.90;;;;;;10354522;28;20037;-82
2022/04/20 02:47:46;;;;;;;77.83;36.73;;;-0.20;99.90;;;;;;10368157;28;20445;-86
2022/04/20 02:52:47;;;;;;;76.17;34.90;;;-0.20;99.90;;;;;;10350580;28;20038;-85
2022/04/20 02:57:47;;;;;;;143.23;73.23;;;-0.30;99.90;;;;;;10367126;28;20478;-83
2022/04/20 03:02:48;;;;;;;143.23;83.37;;;-0.30;99.90;;;;;;10372286;28;20021;-83
2022/04/20 03:07:49;;;;;;;84.60;44.67;;;-0.30;99.90;;;;;;10373343;28;20676;-83
2022/04/20 03:12:49;;;;;;;67.60;32.07;;;-0.40;99.90;;;;;;10366462;28;20050;-86
2022/04/20 03:17:50;;;;;;;43.37;24.50;;;-0.50;99.90;;;;;;10355491;28;20044;-84
2022/04/20 03:22:51;;;;;;;51.60;23.83;;;-0.50;99.90;;;;;;10365983;28;20189;-82
2022/04/20 03:27:53;;;;;;;55.93;26.33;;;-0.50;99.90;;;;;;10365524;28;20041;-84
2022/04/20 03:32:54;;;;;;;52.10;24.03;;;-0.50;99.90;;;;;;10365678;28;20077;-85
2022/04/20 03:37:55;;;;;;;54.90;25.23;;;-0.50;99.90;;;;;;10366784;28;20125;-83
2022/04/20 03:42:56;;;;;;;47.47;23.03;;;-0.40;99.90;;;;;;10348907;28;20030;-87
2022/04/20 03:47:57;;;;;;;54.10;26.13;;;-0.40;99.90;;;;;;10349910;28;20038;-86
2022/04/20 03:52:57;;;;;;;65.60;29.27;;;-0.40;99.90;;;;;;10362619;28;20037;-84
2022/04/20 03:57:58;;;;;;;56.47;27.60;;;-0.30;99.90;;;;;;10350061;28;20030;-86
2022/04/20 04:02:59;;;;;;;69.57;32.20;;;-0.10;99.90;;;;;;10337441;28;20038;-87
2022/04/20 04:07:59;;;;;;;68.67;31.07;;;0.10;99.90;;;;;;10356224;28;20125;-86
2022/04/20 04:13:00;;;;;;;82.20;39.20;;;0.30;99.90;;;;;;10366645;28;20108;-85
2022/04/20 04:18:02;;;;;;;119.70;57.67;;;0.50;99.90;;;;;;10340418;28;20041;-86
2022/04/20 04:23:03;;;;;;;120.17;60.27;;;0.70;99.90;;;;;;10337558;28;20030;-86
2022/04/20 04:28:03;;;;;;;158.23;73.57;;;0.90;99.90;;;;;;10360435;28;20025;-85
2022/04/20 04:33:04;;;;;;;159.30;68.87;;;1.10;99.90;;;;;;10350354;28;20054;-86
2022/04/20 04:38:05;;;;;;;137.10;59.63;;;1.20;99.90;;;;;;10372774;28;20037;-87
2022/04/20 04:43:06;;;;;;;118.00;56.53;;;1.40;99.90;;;;;;10359255;28;20516;-90
2022/04/20 04:48:54;;;;;;;159.60;74.10;;;1.50;99.90;;;;;;10365056;28;20022;-85
2022/04/20 04:53:30;;;;;;;196.17;91.13;;;1.70;99.90;;;;;;10356903;28;20554;-85
2022/04/20 04:58:31;;;;;;;356.03;169.67;;;1.80;99.90;;;;;;10364902;28;20030;-85
2022/04/20 05:03:31;;;;;;;167.53;80.67;;;1.90;99.90;;;;;;10343773;28;20072;-85
2022/04/20 05:08:32;;;;;;;160.20;80.90;;;2.00;99.90;;;;;;10360143;28;20116;-86
2022/04/20 05:13:32;;;;;;;178.07;90.87;;;2.10;99.90;;;;;;10372017;28;20492;-85
2022/04/20 05:18:33;;;;;;;208.97;100.10;;;2.20;99.90;;;;;;10372479;28;20437;-84
2022/04/20 05:23:34;;;;;;;118.00;56.93;;;2.30;99.90;;;;;;10353727;28;20025;-86
2022/04/20 05:28:34;;;;;;;184.70;87.27;;;2.40;99.90;;;;;;10371877;28;20041;-85
2022/04/20 05:33:35;;;;;;;205.23;93.33;;;2.40;99.90;;;;;;10371090;28;20538;-84
2022/04/20 05:43:55;;;;;;;105.13;48.90;;;2.60;99.90;;;;;;10370801;28;20049;-85
2022/04/20 05:48:55;;;;;;;101.57;48.13;;;2.70;99.90;;;;;;10369878;28;20033;-84
2022/04/20 05:53:56;;;;;;;103.03;50.90;;;2.80;99.90;;;;;;10370493;28;20588;-85
2022/04/20 05:58:57;;;;;;;87.47;44.80;;;2.90;99.90;;;;;;10370135;28;20477;-83
2022/04/20 06:03:58;;;;;;;90.50;49.33;;;3.00;99.90;;;;;;10370084;28;20030;-83
2022/04/20 06:08:59;;;;;;;90.87;50.00;;;3.20;99.90;;;;;;10369733;28;20054;-84
2022/04/20 06:14:00;;;;;;;92.40;46.63;;;3.20;99.90;;;;;;10370231;28;20060;-84
2022/04/20 06:19:00;;;;;;;104.13;52.53;;;3.30;99.90;;;;;;10370330;28;20030;-84
2022/04/20 06:24:01;;;;;;;102.07;55.73;;;3.30;99.90;;;;;;10369177;28;20407;-84
2022/04/20 06:29:02;;;;;;;99.97;54.83;;;3.30;99.90;;;;;;10369242;28;20041;-84
2022/04/20 06:34:02;;;;;;;98.93;53.93;;;3.40;99.90;;;;;;10368669;28;20037;-83
2022/04/20 06:39:03;;;;;;;98.13;53.60;;;3.50;99.90;;;;;;10369112;28;20045;-83
2022/04/20 06:44:04;;;;;;;99.53;54.30;;;3.60;99.90;;;;;;10369318;28;20356;-83
2022/04/20 06:49:06;;;;;;;94.80;51.03;;;3.70;99.90;;;;;;10368328;28;20088;-84
2022/04/20 06:59:25;;;;;;;95.07;51.90;;;3.90;99.90;;;;;;10367607;28;20069;-82
2022/04/20 07:04:26;;;;;;;87.20;48.57;;;3.90;99.90;;;;;;10368460;28;20062;-84
2022/04/20 07:09:27;;;;;;;85.77;46.27;;;4.00;99.90;;;;;;10367668;28;20062;-82
2022/04/20 07:14:27;;;;;;;84.27;46.30;;;4.00;99.90;;;;;;10367951;28;20538;-83
2022/04/20 07:19:28;;;;;;;78.57;43.10;;;4.00;99.90;;;;;;10367786;28;20798;-82
2022/04/20 07:24:29;;;;;;;122.33;62.93;;;4.10;99.90;;;;;;10367353;28;20040;-83
2022/04/20 07:29:29;;;;;;;87.90;49.17;;;4.10;99.90;;;;;;10367524;28;20030;-84
2022/04/20 07:34:30;;;;;;;90.13;48.17;;;4.20;99.90;;;;;;10367391;28;20046;-83
2022/04/20 07:39:30;;;;;;;88.87;48.80;;;4.20;99.90;;;;;;10367199;28;20478;-84
2022/04/20 07:44:31;;;;;;;81.77;46.17;;;4.20;99.90;;;;;;10366226;28;20646;-82
2022/04/20 07:54:51;;;;;;;78.93;43.33;;;4.40;99.90;;;;;;10367003;28;20062;-83
2022/04/20 07:59:51;;;;;;;82.13;46.43;;;4.50;99.90;;;;;;10365633;28;20445;-82
2022/04/20 08:04:52;;;;;;;84.53;48.73;;;4.60;99.90;;;;;;10366709;28;20037;-84
2022/04/20 08:09:53;;;;;;;98.87;53.23;;;4.80;99.90;;;;;;10369871;28;20061;-82
2022/04/20 08:14:54;;;;;;;82.60;45.97;;;5.00;99.90;;;;;;10374573;28;20038;-83
2022/04/20 08:19:55;;;;;;;79.60;46.43;;;5.00;99.90;;;;;;10374175;28;20781;-83
2022/04/20 08:24:56;;;;;;;79.20;44.63;;;5.00;99.90;;;;;;10373835;28;20101;-82
2022/04/20 08:29:57;;;;;;;74.33;41.47;;;5.10;99.90;;;;;;10374303;28;20540;-82
2022/04/20 08:34:58;;;;;;;77.27;38.40;;;5.20;99.90;;;;;;10373234;28;20046;-84
2022/04/20 08:39:58;;;;;;;80.60;42.90;;;5.30;99.90;;;;;;10371859;28;20080;-83
2022/04/20 08:45:02;;;;;;;74.13;40.27;;;5.30;99.90;;;;;;10372098;28;20033;-82
2022/04/20 08:50:05;;;;;;;78.73;40.83;;;5.40;99.90;;;;;;10373032;28;20022;-83
2022/04/20 08:55:11;;;;;;;79.57;44.00;;;5.70;99.90;;;;;;10372802;28;20040;-82
2022/04/20 09:00:23;;;;;;;75.33;41.43;;;5.80;99.90;;;;;;10372374;28;20024;-82
2022/04/20 09:05:25;;;;;;;66.27;37.93;;;6.00;99.90;;;;;;10372573;28;20022;-83
2022/04/20 09:10:26;;;;;;;67.37;39.87;;;6.20;99.90;;;;;;10370415;28;20148;-82
2022/04/20 09:15:32;;;;;;;62.10;35.30;;;6.50;99.90;;;;;;10372246;28;20132;-82
2022/04/20 09:20:34;;;;;;;54.80;32.35;;;6.60;99.90;;;;;;10372009;28;20168;-84
2022/04/20 09:25:41;;;;;;;57.07;31.07;;;6.90;99.90;;;;;;10371683;28;20033;-81
2022/04/20 09:30:43;;;;;;;60.93;32.87;;;7.00;99.90;;;;;;10371409;28;20032;-82
2022/04/20 09:35:49;;;;;;;57.13;30.23;;;7.10;99.90;;;;;;10371468;28;20037;-82
2022/04/20 09:40:49;;;;;;;;;;;7.20;99.90;;;;;;10371553;28;20034;-84
2022/04/20 09:46:03;;;;;;;52.93;31.60;;;7.30;96.70;;;;;;10371875;28;19905;-83
2022/04/20 09:51:12;;;;;;;50.13;30.57;;;7.40;98.10;;;;;;10371187;28;20037;-84
2022/04/20 09:56:24;;;;;;;46.00;27.77;;;7.70;96.30;;;;;;10370893;28;20033;-83
2022/04/20 10:01:34;;;;;;;52.37;29.67;;;7.90;94.20;;;;;;10370762;28;20492;-82
2022/04/20 10:06:36;;;;;;;42.93;26.50;;;7.90;93.60;;;;;;10370014;28;20080;-85
2022/04/20 10:11:38;;;;;;;41.57;23.97;;;7.90;93.30;;;;;;10370293;28;20093;-83
2022/04/20 10:16:39;;;;;;;38.53;24.20;;;8.00;93.10;;;;;;10370390;28;20025;-83
2022/04/20 10:21:51;;;;;;;37.77;22.77;;;8.20;93.20;;;;;;10369300;28;20433;-83
2022/04/20 10:26:52;;;;;;;48.17;25.23;;;8.40;92.80;;;;;;10369702;28;20501;-84
2022/04/20 10:31:58;;;;;;;50.07;28.93;;;8.60;90.60;;;;;;10368629;28;20073;-82
2022/04/20 10:37:01;;;;;;;36.17;21.07;;;8.90;91.70;;;;;;10369140;28;20128;-83
2022/04/20 10:42:20;;;;;;;34.87;19.23;;;9.10;89.00;;;;;;10368441;28;20037;-83
2022/04/20 10:47:32;;;;;;;36.40;23.20;;;9.00;89.60;;;;;;10369108;28;20113;-82
2022/04/20 10:52:37;;;;;;;41.40;24.87;;;8.80;89.40;;;;;;10350650;28;20133;-83
2022/04/20 10:57:40;;;;;;;39.87;23.90;;;8.60;90.40;;;;;;10368400;28;20057;-84
2022/04/20 11:02:53;;;;;;;40.43;24.00;;;8.40;90.70;;;;;;10368295;28;20273;-83
2022/04/20 11:08:00;;;;;;;47.27;28.07;;;8.10;91.30;;;;;;10368356;28;20448;-84
2022/04/20 11:19:04;;;;;;;36.70;24.37;;;7.90;93.10;;;;;;10368371;28;20099;-84
2022/04/20 11:24:08;;;;;;;44.23;27.67;;;7.90;94.80;;;;;;10368272;28;20034;-82
2022/04/20 11:29:17;;;;;;;45.70;27.77;;;7.80;95.00;;;;;;10367625;28;20022;-84
2022/04/20 11:34:22;;;;;;;44.07;26.63;;;7.80;96.90;;;;;;10367234;28;20093;-84
2022/04/20 11:39:24;;;;;;;38.97;22.40;;;7.70;97.60;;;;;;10367850;28;20049;-83
2022/04/20 11:44:25;;;;;;;43.43;25.83;;;7.70;98.70;;;;;;10371435;28;20441;-84
2022/04/20 11:49:40;;;;;;;43.40;25.00;;;7.90;99.90;;;;;;10358212;28;20037;-82
2022/04/20 11:54:48;;;;;;;35.53;21.77;;;7.90;98.30;;;;;;10375106;28;20041;-83
2022/04/20 11:59:50;;;;;;;53.67;30.20;;;7.80;99.20;;;;;;10358946;28;20030;-84
2022/04/20 12:05:07;;;;;;;33.87;20.23;;;8.10;99.80;;;;;;10375077;28;20069;-83
2022/04/20 12:10:08;;;;;;;29.67;19.33;;;8.10;96.30;;;;;;10360386;28;20058;-82
2022/04/20 12:15:09;;;;;;;32.20;20.93;;;8.10;96.70;;;;;;10374854;28;20530;-82
2022/04/20 12:20:11;;;;;;;32.57;21.37;;;7.90;96.90;;;;;;10374043;28;20029;-82
2022/04/20 12:25:14;;;;;;;49.97;27.03;;;7.80;97.80;;;;;;10374409;28;20030;-84
2022/04/20 12:30:15;;;;;;;42.43;21.67;;;7.80;99.90;;;;;;10373800;28;20053;-83
2022/04/20 12:35:20;;;;;;;31.90;17.50;;;7.70;99.90;;;;;;10356118;28;20030;-83
2022/04/20 12:40:26;;;;;;;85.67;35.67;;;7.50;99.90;;;;;;10373279;28;20030;-82
2022/04/20 12:45:26;;;;;;;78.80;35.35;;;7.30;99.90;;;;;;10365316;28;20030;-84
2022/04/20 12:50:34;;;;;;;29.53;18.40;;;7.20;99.90;;;;;;10361031;28;20037;-84
2022/04/20 12:55:40;;;;;;;85.07;38.43;;;7.10;99.90;;;;;;10360010;28;20516;-83
2022/04/20 13:06:12;;;;;;;75.23;37.00;;;7.00;99.90;;;;;;10320577;28;20045;-82
2022/04/20 13:11:14;;;;;;;48.30;26.10;;;7.00;99.90;;;;;;10368148;28;20064;-83
2022/04/20 13:16:15;;;;;;;47.00;25.50;;;7.00;99.90;;;;;;10368586;28;20080;-84
2022/04/20 13:21:15;;;;;;;57.90;30.37;;;7.00;99.90;;;;;;10370959;28;20160;-82
2022/04/20 13:31:36;;;;;;;69.80;36.77;;;6.90;99.90;;;;;;10357264;28;20393;-84
2022/04/20 13:36:36;;;;;;;48.30;27.87;;;6.80;99.90;;;;;;10369642;28;20042;-83
2022/04/20 13:41:37;;;;;;;62.33;35.90;;;6.90;99.90;;;;;;10361207;28;20116;-82
2022/04/20 13:46:38;;;;;;;52.73;32.10;;;6.80;99.90;;;;;;10368065;28;20073;-82
2022/04/20 13:51:40;;;;;;;39.77;22.97;;;6.90;99.90;;;;;;10360442;28;20045;-84
2022/04/20 13:56:41;;;;;;;33.07;21.27;;;6.80;99.90;;;;;;10352442;28;20037;-83
2022/04/20 14:01:41;;;;;;;43.73;26.70;;;6.80;99.90;;;;;;10368106;28;20052;-82
2022/04/20 14:06:42;;;;;;;43.47;27.60;;;6.70;99.90;;;;;;10368173;28;20504;-82
2022/04/20 14:11:43;;;;;;;50.10;31.13;;;6.70;99.90;;;;;;10368939;28;20077;-82
2022/04/20 14:16:43;;;;;;;54.73;31.83;;;6.70;99.90;;;;;;10368229;28;20026;-83
2022/04/20 14:21:44;;;;;;;57.73;33.50;;;6.60;99.90;;;;;;10344216;28;21484;-82
2022/04/20 14:32:12;;;;;;;81.47;45.47;;;6.50;99.90;;;;;;10367086;28;20243;-82
2022/04/20 14:37:13;;;;;;;61.53;37.37;;;6.60;99.90;;;;;;10351739;28;20034;-83
2022/04/20 14:42:21;;;;;;;80.10;44.07;;;6.70;99.90;;;;;;10621627;27;20310;-83
2022/04/20 14:47:22;;;;;;;64.83;36.37;;;6.70;99.90;;;;;;10589974;28;20180;-82
2022/04/20 14:52:23;;;;;;;67.83;35.77;;;6.80;99.90;;;;;;10593157;28;20039;-82
2022/04/20 14:57:23;;;;;;;48.50;26.60;;;6.80;99.90;;;;;;10597615;27;20165;-83
2022/04/20 15:02:24;;;;;;;42.40;24.60;;;6.80;99.90;;;;;;10590941;28;20483;-82
2022/04/20 15:07:24;;;;;;;43.10;23.90;;;6.80;99.90;;;;;;10584793;27;20574;-81
2022/04/20 15:12:25;;;;;;;49.43;26.67;;;6.80;99.90;;;;;;10593482;27;20125;-82
2022/04/20 15:17:27;;;;;;;50.97;31.07;;;6.70;99.90;;;;;;10593050;27;20027;-81
2022/04/20 15:22:27;;;;;;;56.63;29.70;;;6.80;99.90;;;;;;10592906;28;20024;-81
2022/04/20 15:27:28;;;;;;;49.67;29.47;;;6.80;99.90;;;;;;10591970;28;20035;-82
2022/04/20 15:32:31;;;;;;;67.73;36.67;;;6.70;99.90;;;;;;10593982;28;20169;-83
2022/04/20 15:37:32;;;;;;;99.70;49.17;;;6.70;99.90;;;;;;10595818;27;20039;-82
2022/04/20 15:42:38;;;;;;;76.77;41.77;;;6.70;99.90;;;;;;10591380;28;20032;-82
2022/04/20 15:47:39;;;;;;;83.13;44.33;;;6.70;99.90;;;;;;10586917;28;20015;-82
2022/04/20 15:52:39;;;;;;;52.27;29.97;;;6.60;99.90;;;;;;10563626;28;20024;-82
2022/04/20 16:03:00;;;;;;;82.53;44.67;;;6.50;99.90;;;;;;10573735;28;20156;-82
2022/04/20 16:08:00;;;;;;;86.90;46.90;;;6.50;99.90;;;;;;10574376;28;20052;-82
2022/04/20 16:13:02;;;;;;;101.60;50.40;;;6.40;99.90;;;;;;10568134;28;20110;-81
2022/04/20 16:18:03;;;;;;;63.90;32.40;;;6.40;99.90;;;;;;10575711;28;20080;-82
2022/04/20 16:23:08;;;;;;;99.20;43.27;;;6.50;99.90;;;;;;10553615;28;20024;-84
2022/04/20 16:28:09;;;;;;;138.13;64.23;;;6.40;99.90;;;;;;10575731;28;20483;-83
2022/04/20 16:33:12;;;;;;;73.93;37.83;;;6.40;99.90;;;;;;10567517;28;20023;-83
2022/04/20 16:38:13;;;;;;;104.17;54.70;;;6.40;99.90;;;;;;10571341;28;20040;-82
2022/04/20 16:43:14;;;;;;;87.53;47.30;;;6.40;99.90;;;;;;10569033;28;20028;-82
2022/04/20 16:48:15;;;;;;;92.60;50.33;;;6.40;99.90;;;;;;10565566;28;20023;-82
2022/04/20 16:53:15;;;;;;;98.60;51.13;;;6.40;99.90;;;;;;10571267;28;20023;-82
2022/04/20 16:58:16;;;;;;;72.40;38.53;;;6.40;99.90;;;;;;10572204;28;20394;-83
2022/04/20 17:03:17;;;;;;;41.00;25.33;;;6.30;99.90;;;;;;10570823;28;20027;-82
2022/04/20 17:08:17;;;;;;;63.13;35.13;;;6.30;99.90;;;;;;10557652;28;20032;-82
2022/04/20 17:13:18;;;;;;;37.17;23.80;;;6.30;99.90;;;;;;10569080;28;20027;-81
2022/04/20 17:18:19;;;;;;;31.50;19.47;;;6.20;99.90;;;;;;10569923;28;20047;-82
2022/04/20 17:28:38;;;;;;;46.83;28.50;;;6.20;99.90;;;;;;10572481;28;20052;-82
2022/04/20 17:33:39;;;;;;;94.33;50.43;;;6.10;99.90;;;;;;10575107;28;20443;-82
2022/04/20 17:38:40;;;;;;;55.47;29.63;;;6.10;99.90;;;;;;10576166;28;20052;-81
2022/04/20 17:43:41;;;;;;;42.27;24.40;;;6.10;99.90;;;;;;10574147;28;20428;-82
2022/04/20 17:48:42;;;;;;;82.63;42.93;;;6.00;99.90;;;;;;10576250;28;20107;-83
2022/04/20 17:53:42;;;;;;;74.67;36.17;;;6.00;99.90;;;;;;10573170;28;20024;-83
2022/04/20 17:58:43;;;;;;;51.37;29.83;;;6.00;99.90;;;;;;10572661;28;20390;-83
2022/04/20 18:03:45;;;;;;;50.00;29.83;;;6.00;99.90;;;;;;10569367;28;20024;-83
2022/04/20 18:08:46;;;;;;;40.10;24.30;;;6.00;99.90;;;;;;10534798;28;20020;-82
2022/04/20 18:13:47;;;;;;;31.43;20.03;;;6.00;99.90;;;;;;10556458;28;20064;-84
2022/04/20 18:18:48;;;;;;;38.57;24.13;;;6.00;99.90;;;;;;10554559;28;20028;-84
2022/04/20 18:23:49;;;;;;;50.07;31.73;;;5.90;99.90;;;;;;10559345;28;20012;-83
2022/04/20 18:28:49;;;;;;;48.10;27.13;;;5.90;99.90;;;;;;10550535;28;20371;-83
2022/04/20 18:33:50;;;;;;;60.43;34.27;;;5.90;99.90;;;;;;10559756;28;20035;-82
2022/04/20 18:38:51;;;;;;;70.93;37.67;;;5.90;99.90;;;;;;10542699;28;20043;-83
2022/04/20 18:43:53;;;;;;;206.70;98.03;;;5.90;99.90;;;;;;10563886;28;20020;-85
2022/04/20 18:48:54;;;;;;;166.00;76.80;;;5.80;99.90;;;;;;10555997;28;20030;-83
2022/04/20 18:59:14;;;;;;;208.40;101.57;;;5.80;99.90;;;;;;10560277;28;20043;-83
2022/04/20 19:09:34;;;;;;;129.77;67.57;;;5.70;99.90;;;;;;10558211;28;20039;-83
2022/04/20 19:14:36;;;;;;;141.30;77.90;;;5.70;99.90;;;;;;10541535;28;20036;-82
2022/04/20 19:19:37;;;;;;;116.60;65.07;;;5.70;99.90;;;;;;10540590;28;20478;-83
2022/04/20 19:24:38;;;;;;;129.67;59.87;;;5.70;99.90;;;;;;10552591;28;20043;-83
2022/04/20 19:29:39;;;;;;;100.90;49.07;;;5.70;99.90;;;;;;10559573;28;20035;-83
2022/04/20 19:34:40;;;;;;;92.33;48.20;;;5.70;99.90;;;;;;10562541;28;20020;-83
2022/04/20 19:39:40;;;;;;;95.90;50.67;;;5.70;99.90;;;;;;10561254;28;20047;-83
2022/04/20 19:44:43;;;;;;;127.63;63.00;;;5.60;99.90;;;;;;10572031;28;20107;-83
2022/04/20 19:49:44;;;;;;;123.43;63.63;;;5.60;99.90;;;;;;10572967;28;20032;-84
2022/04/20 19:54:45;;;;;;;136.00;73.37;;;5.60;99.90;;;;;;10566282;28;20407;-82
2022/04/20 19:59:46;;;;;;;137.77;70.33;;;5.60;99.90;;;;;;10554325;28;20059;-82
2022/04/20 20:04:47;;;;;;;124.80;64.93;;;5.60;99.90;;;;;;10558802;28;20039;-82
2022/04/20 20:09:48;;;;;;;114.70;57.00;;;5.50;99.90;;;;;;10562427;28;20197;-82
2022/04/20 20:14:49;;;;;;;120.97;65.07;;;5.50;99.90;;;;;;10563801;28;20038;-82
2022/04/20 20:19:53;;;;;;;137.70;71.40;;;5.50;99.90;;;;;;10559810;28;20048;-82
2022/04/20 20:30:15;;;;;;;105.93;55.13;;;5.60;99.90;;;;;;10553110;28;20112;-82
2022/04/20 20:35:16;;;;;;;107.27;53.97;;;5.50;99.90;;;;;;10552694;28;20034;-82
2022/04/20 20:40:18;;;;;;;90.90;46.97;;;5.50;99.90;;;;;;10554908;28;20401;-82
2022/04/20 20:45:18;;;;;;;97.70;50.83;;;5.50;99.90;;;;;;10560702;28;20051;-84
2022/04/20 20:50:34;;;;;;;97.37;50.77;;;5.50;99.90;;;;;;10569681;28;20051;-82
2022/04/20 20:55:35;;;;;;;110.63;56.33;;;5.60;99.90;;;;;;10563427;28;20103;-83
2022/04/20 21:00:35;;;;;;;82.60;46.43;;;5.60;99.90;;;;;;10568904;28;20372;-83
2022/04/20 21:05:36;;;;;;;77.03;42.27;;;5.60;99.90;;;;;;10567820;28;20016;-82
2022/04/20 21:10:37;;;;;;;83.20;45.13;;;5.50;99.90;;;;;;10573065;28;20103;-82
2022/04/20 21:15:39;;;;;;;75.90;41.97;;;5.60;99.90;;;;;;10578051;28;20016;-82
2022/04/20 21:20:40;;;;;;;73.83;42.80;;;5.60;99.90;;;;;;10577785;28;20510;-83
2022/04/20 21:25:40;;;;;;;72.67;43.30;;;5.60;99.90;;;;;;10573911;28;20028;-83
2022/04/20 21:30:41;;;;;;;81.57;45.43;;;5.60;99.90;;;;;;10553871;28;20016;-82
2022/04/20 21:35:42;;;;;;;62.13;36.50;;;5.60;99.90;;;;;;10571040;28;20471;-83
2022/04/20 21:40:55;;;;;;;55.83;34.10;;;5.60;99.90;;;;;;10576421;28;20453;-83
2022/04/20 21:46:00;;;;;;;54.80;32.67;;;5.60;99.90;;;;;;10576807;28;20024;-83
2022/04/20 21:51:01;;;;;;;68.50;37.60;;;5.60;99.90;;;;;;10574368;28;20028;-84
2022/04/20 21:56:01;;;;;;;68.83;40.07;;;5.60;99.90;;;;;;10576604;28;20028;-84
2022/04/20 22:01:06;;;;;;;70.93;39.23;;;5.60;99.90;;;;;;10575730;28;20100;-83
2022/04/20 22:16:50;;;;;;;80.80;41.30;;;5.40;99.90;;;;;;10560729;28;20031;-82
2022/04/20 22:21:52;;;;;;;74.43;40.17;;;5.40;99.90;;;;;;10575451;28;20039;-82
2022/04/20 22:26:54;;;;;;;68.07;37.27;;;5.40;99.90;;;;;;10575343;28;20055;-83
2022/04/20 22:31:55;;;;;;;76.77;42.77;;;5.40;99.90;;;;;;10575202;28;20027;-82
2022/04/20 22:36:56;;;;;;;78.87;43.83;;;5.40;99.90;;;;;;10574783;28;20019;-83
2022/04/20 22:41:56;;;;;;;83.07;47.43;;;5.40;99.90;;;;;;10574593;28;20474;-82
2022/04/20 22:46:57;;;;;;;94.30;52.53;;;5.40;99.90;;;;;;10575127;28;20049;-82
2022/04/20 22:51:58;;;;;;;103.23;59.00;;;5.40;99.90;;;;;;10574916;28;20588;-84
2022/04/20 22:56:59;;;;;;;104.40;59.37;;;5.40;99.90;;;;;;10575285;28;20027;-82
2022/04/20 23:01:59;;;;;;;96.90;54.50;;;5.40;99.90;;;;;;10578886;28;20063;-83
2022/04/20 23:07:00;;;;;;;84.40;46.50;;;5.40;99.90;;;;;;10583020;28;20462;-83
2022/04/20 23:12:01;;;;;;;118.57;70.80;;;5.50;99.90;;;;;;10581574;28;20091;-83
2022/04/20 23:17:02;;;;;;;84.17;48.57;;;5.50;99.90;;;;;;10582550;28;20028;-83
2022/04/20 23:22:03;;;;;;;99.40;59.60;;;5.50;99.90;;;;;;10566635;28;20044;-83
2022/04/20 23:32:23;;;;;;;91.83;52.80;;;5.50;99.90;;;;;;10582533;28;20052;-83
2022/04/20 23:37:24;;;;;;;102.87;55.37;;;5.50;99.90;;;;;;10581678;28;20475;-82
2022/04/20 23:42:25;;;;;;;89.73;50.63;;;5.50;99.90;;;;;;10581416;28;20051;-82
2022/04/20 23:47:26;;;;;;;84.17;49.30;;;5.50;99.90;;;;;;10580986;28;20027;-84
2022/04/20 23:52:26;;;;;;;82.93;46.20;;;5.50;99.90;;;;;;10581314;28;20016;-82
2022/04/20 23:57:28;;;;;;;83.80;47.80;;;5.50;99.90;;;;;;10579969;28;20459;-83
